createdAt,value
2023-03-22T00:02:06.966Z,33.67
2023-03-22T00:04:36.497Z,33.72
2023-03-22T00:07:04.906Z,33.25
2023-03-22T00:09:32.889Z,34.10
2023-03-22T00:12:00.648Z,34.33
2023-03-22T00:14:34.034Z,34.85
2023-03-22T00:17:01.423Z,35.08
2023-03-22T00:19:34.283Z,33.47
2023-03-22T00:22:03.944Z,33.95
2023-03-22T00:24:31.423Z,33.70
2023-03-22T00:26:59.117Z,32.83
2023-03-22T00:29:27.515Z,34.13
2023-03-22T00:31:56.591Z,33.50
2023-03-22T00:34:23.840Z,34.67
2023-03-22T00:36:52.234Z,33.25
2023-03-22T00:39:19.472Z,33.90
2023-03-22T00:41:46.777Z,34.28
2023-03-22T00:44:14.185Z,33.65
2023-03-22T00:46:41.663Z,34.70
2023-03-22T00:49:09.170Z,33.85
2023-03-22T00:51:36.579Z,34.38
2023-03-22T00:54:04.014Z,34.33
2023-03-22T00:56:34.267Z,33.97
2023-03-22T00:59:04.542Z,33.55
2023-03-22T01:01:32.583Z,35.55
2023-03-22T01:04:00.126Z,34.78
2023-03-22T01:06:29.527Z,35.47
2023-03-22T01:08:57.596Z,35.60
2023-03-22T01:11:26.291Z,35.65
2023-03-22T01:13:55.203Z,37.63
2023-03-22T01:16:22.482Z,36.70
2023-03-22T01:18:50.897Z,35.92
2023-03-22T01:21:18.370Z,36.70
2023-03-22T01:23:46.034Z,36.70
2023-03-22T01:26:14.235Z,37.30
2023-03-22T01:28:41.874Z,38.33
2023-03-22T01:31:10.291Z,38.97
2023-03-22T01:33:38.011Z,38.47
2023-03-22T01:36:06.033Z,39.70
2023-03-22T01:38:33.159Z,39.95
2023-03-22T01:41:06.939Z,38.67
2023-03-22T01:43:35.195Z,39.00
2023-03-22T01:46:02.766Z,40.65
2023-03-22T01:48:46.460Z,39.53
2023-03-22T01:51:28.008Z,40.60
2023-03-22T01:54:05.919Z,40.75
2023-03-22T01:59:05.848Z,41.80
2023-03-22T02:01:35.063Z,44.55
2023-03-22T02:04:10.324Z,44.80
2023-03-22T02:06:39.508Z,44.90
2023-03-22T02:09:13.229Z,45.92
2023-03-22T02:11:52.605Z,47.28
2023-03-22T02:14:28.556Z,46.33
2023-03-22T02:17:13.412Z,48.03
2023-03-22T02:20:13.909Z,49.95
2023-03-22T02:23:00.665Z,50.05
2023-03-22T02:25:46.769Z,50.67
2023-03-22T02:28:24.786Z,50.50
2023-03-22T02:31:12.697Z,51.03
2023-03-22T02:34:14.904Z,49.75
2023-03-22T02:37:05.046Z,51.08
2023-03-22T02:39:38.844Z,51.28
2023-03-22T02:42:20.186Z,50.05
2023-03-22T02:45:13.606Z,51.33
2023-03-22T02:48:12.094Z,51.40
2023-03-22T02:50:50.266Z,47.90
2023-03-22T02:53:23.142Z,53.58
2023-03-22T02:56:11.950Z,56.53
2023-03-22T02:58:48.638Z,54.33
2023-03-22T03:01:29.509Z,53.97
2023-03-22T03:04:01.793Z,53.80
2023-03-22T03:06:33.907Z,54.70
2023-03-22T03:09:05.327Z,55.42
2023-03-22T03:11:33.315Z,55.28
2023-03-22T03:14:00.782Z,56.28
2023-03-22T03:16:31.318Z,56.42
2023-03-22T03:19:09.463Z,59.22
2023-03-22T03:21:59.185Z,56.35
2023-03-22T03:24:56.805Z,56.47
2023-03-22T03:27:41.290Z,57.88
2023-03-22T03:30:39.279Z,60.90
2023-03-22T03:33:13.856Z,63.92
2023-03-22T03:35:48.766Z,64.15
2023-03-22T03:38:20.726Z,62.90
2023-03-22T03:40:52.333Z,66.32
2023-03-22T03:43:21.630Z,66.93
2023-03-22T03:45:49.141Z,67.28
2023-03-22T03:48:21.537Z,66.97
2023-03-22T03:50:52.354Z,67.70
2023-03-22T03:53:19.700Z,68.80
2023-03-22T03:55:47.153Z,68.40
2023-03-22T03:58:16.440Z,71.28
2023-03-22T04:00:46.728Z,69.78
2023-03-22T04:03:15.101Z,71.18
2023-03-22T04:05:42.581Z,71.90
2023-03-22T04:08:10.080Z,72.47
2023-03-22T04:10:38.811Z,71.80
2023-03-22T04:13:06.586Z,73.18
2023-03-22T04:15:33.892Z,71.53
2023-03-22T04:18:01.429Z,73.50
2023-03-22T04:20:30.131Z,73.78
2023-03-22T04:22:58.444Z,73.38
2023-03-22T04:25:30.808Z,75.28
2023-03-22T04:27:58.156Z,74.70
2023-03-22T04:30:27.775Z,73.60
2023-03-22T04:32:55.241Z,73.60
2023-03-22T04:35:22.916Z,73.15
2023-03-22T04:37:50.034Z,76.43
2023-03-22T04:40:17.444Z,77.43
2023-03-22T04:42:50.711Z,81.57
2023-03-22T04:45:29.408Z,80.80
2023-03-22T04:47:56.783Z,78.88
2023-03-22T04:50:25.317Z,81.50
2023-03-22T04:52:53.632Z,80.35
2023-03-22T04:55:22.137Z,78.85
2023-03-22T04:57:49.564Z,79.28
2023-03-22T05:00:17.601Z,76.50
2023-03-22T05:02:45.074Z,74.35
2023-03-22T05:05:12.376Z,78.60
2023-03-22T05:07:39.903Z,76.60
2023-03-22T05:10:08.128Z,76.93
2023-03-22T05:12:37.448Z,79.68
2023-03-22T05:15:06.883Z,80.68
2023-03-22T05:17:34.365Z,80.38
2023-03-22T05:20:09.404Z,81.10
2023-03-22T05:22:40.838Z,79.25
2023-03-22T05:25:11.818Z,82.63
2023-03-22T05:27:39.298Z,81.78
2023-03-22T05:30:07.579Z,83.43
2023-03-22T05:32:37.793Z,79.95
2023-03-22T05:35:05.597Z,81.22
2023-03-22T05:37:32.707Z,81.88
2023-03-22T05:39:59.894Z,80.20
2023-03-22T05:42:27.084Z,80.03
2023-03-22T05:45:02.042Z,81.88
2023-03-22T05:47:30.614Z,85.32
2023-03-22T05:49:57.841Z,81.40
2023-03-22T05:52:25.349Z,80.90
2023-03-22T05:54:52.775Z,82.82
2023-03-22T05:57:19.881Z,79.65
2023-03-22T05:59:47.150Z,81.65
2023-03-22T06:02:14.250Z,83.20
2023-03-22T06:04:56.010Z,83.82
2023-03-22T06:07:23.402Z,83.70
2023-03-22T06:09:50.978Z,84.50
2023-03-22T06:12:18.913Z,82.18
2023-03-22T06:14:46.415Z,84.45
2023-03-22T06:17:13.770Z,83.35
2023-03-22T06:19:41.290Z,84.80
2023-03-22T06:22:08.874Z,83.10
2023-03-22T06:24:36.682Z,83.63
2023-03-22T06:27:04.089Z,81.43
2023-03-22T06:29:31.650Z,79.95
2023-03-22T06:32:01.857Z,78.38
2023-03-22T06:34:29.302Z,87.25
2023-03-22T06:37:03.829Z,77.03
2023-03-22T06:39:31.422Z,77.68
2023-03-22T06:42:00.535Z,78.82
2023-03-22T06:46:57.006Z,73.47
2023-03-22T06:49:24.474Z,70.88
2023-03-22T06:51:51.902Z,72.22
2023-03-22T06:54:20.200Z,73.00
2023-03-22T06:56:48.416Z,71.50
2023-03-22T06:59:15.521Z,70.22
2023-03-22T07:01:42.950Z,67.60
2023-03-22T07:04:10.332Z,67.57
2023-03-22T07:06:37.737Z,67.65
2023-03-22T07:09:05.273Z,64.20
2023-03-22T07:11:32.873Z,63.33
2023-03-22T07:14:01.770Z,61.83
2023-03-22T07:16:29.062Z,58.30
2023-03-22T07:18:57.425Z,57.28
2023-03-22T07:21:24.600Z,56.58
2023-03-22T07:23:51.891Z,59.88
2023-03-22T07:26:19.400Z,55.65
2023-03-22T07:28:47.069Z,56.30
2023-03-22T07:31:14.587Z,54.67
2023-03-22T07:33:42.030Z,53.25
2023-03-22T07:36:11.888Z,53.50
2023-03-22T07:38:40.713Z,53.17
2023-03-22T07:41:08.351Z,52.45
2023-03-22T07:43:50.814Z,52.40
2023-03-22T07:46:23.366Z,49.80
2023-03-22T07:48:50.799Z,48.63
2023-03-22T07:51:19.802Z,47.55
2023-03-22T07:53:47.412Z,46.75
2023-03-22T07:56:14.665Z,44.38
2023-03-22T07:58:42.077Z,46.17
2023-03-22T08:01:09.666Z,47.25
2023-03-22T08:03:38.198Z,46.03
2023-03-22T08:06:08.323Z,44.85
2023-03-22T08:08:37.189Z,43.55
2023-03-22T08:11:07.982Z,43.88
2023-03-22T08:13:36.058Z,41.53
2023-03-22T08:16:03.563Z,41.80
2023-03-22T08:18:32.948Z,42.65
2023-03-22T08:21:00.704Z,44.08
2023-03-22T08:23:41.754Z,42.50
2023-03-22T08:26:11.372Z,38.92
2023-03-22T08:28:38.671Z,40.50
2023-03-22T08:31:17.347Z,38.63
2023-03-22T08:33:45.250Z,35.58
2023-03-22T08:36:19.259Z,36.83
2023-03-22T08:38:46.458Z,35.17
2023-03-22T08:41:14.173Z,34.58
2023-03-22T08:43:43.336Z,35.60
2023-03-22T08:46:10.860Z,33.17
2023-03-22T08:48:38.808Z,32.55
2023-03-22T08:51:06.954Z,29.15
2023-03-22T08:53:34.207Z,28.25
2023-03-22T08:56:02.477Z,28.60
2023-03-22T08:58:29.639Z,29.42
2023-03-22T09:00:57.115Z,29.23
2023-03-22T09:03:25.237Z,23.70
2023-03-22T09:05:58.127Z,25.48
2023-03-22T09:08:26.363Z,23.37
2023-03-22T09:10:54.530Z,23.73
2023-03-22T09:13:28.756Z,26.30
2023-03-22T09:15:56.978Z,26.35
2023-03-22T09:18:25.080Z,26.20
2023-03-22T09:20:53.726Z,25.48
2023-03-22T09:23:23.053Z,22.33
2023-03-22T09:25:51.489Z,19.50
2023-03-22T09:28:19.401Z,18.55
2023-03-22T09:30:46.632Z,20.52
2023-03-22T09:33:16.147Z,20.30
2023-03-22T09:35:43.946Z,19.25
2023-03-22T09:38:12.488Z,17.30
2023-03-22T09:40:51.210Z,14.57
2023-03-22T09:43:19.906Z,15.98
2023-03-22T09:45:50.721Z,16.30
2023-03-22T09:48:18.050Z,15.93
2023-03-22T09:50:49.078Z,17.05
2023-03-22T09:53:17.850Z,16.52
2023-03-22T09:55:51.867Z,11.57
2023-03-22T09:58:42.392Z,11.73
2023-03-22T10:01:32.050Z,15.10
2023-03-22T10:04:32.696Z,16.10
2023-03-22T10:07:27.628Z,15.07
2023-03-22T10:10:13.263Z,13.48
2023-03-22T10:13:07.958Z,13.63
2023-03-22T10:15:42.191Z,12.32
2023-03-22T10:18:18.469Z,12.88
2023-03-22T10:21:05.243Z,14.50
2023-03-22T10:23:35.538Z,14.00
2023-03-22T10:26:04.869Z,14.25
2023-03-22T10:28:39.613Z,19.42
2023-03-22T10:31:13.340Z,15.32
2023-03-22T10:36:22.652Z,14.35
2023-03-22T10:38:54.953Z,13.68
2023-03-22T10:41:26.053Z,14.75
2023-03-22T10:43:57.726Z,18.50
2023-03-22T10:46:31.975Z,10.43
2023-03-22T10:49:01.169Z,9.27
2023-03-22T10:51:52.007Z,10.35
2023-03-22T10:54:21.793Z,11.20
2023-03-22T10:56:50.228Z,11.07
2023-03-22T10:59:42.724Z,9.95
2023-03-22T11:02:23.077Z,9.27
2023-03-22T11:04:56.841Z,8.68
2023-03-22T11:07:44.478Z,8.52
2023-03-22T11:10:34.638Z,8.35
2023-03-22T11:13:10.015Z,8.68
2023-03-22T11:15:49.806Z,8.60
2023-03-22T11:18:19.154Z,8.80
2023-03-22T11:21:08.510Z,7.85
2023-03-22T11:23:38.889Z,8.77
2023-03-22T11:26:15.051Z,7.00
2023-03-22T11:28:47.429Z,6.63
2023-03-22T11:31:18.886Z,5.00
2023-03-22T11:33:57.017Z,6.25
2023-03-22T11:36:24.931Z,6.25
2023-03-22T11:39:01.063Z,6.35
2023-03-22T11:41:37.063Z,6.78
2023-03-22T11:44:14.575Z,6.70
2023-03-22T11:46:51.187Z,6.32
2023-03-22T11:49:19.209Z,6.45
2023-03-22T11:51:46.854Z,6.03
2023-03-22T11:54:17.129Z,6.03
2023-03-22T11:56:47.673Z,6.15
2023-03-22T11:59:44.383Z,7.07
2023-03-22T12:02:16.924Z,5.88
2023-03-22T12:04:47.426Z,5.60
2023-03-22T12:07:25.070Z,4.85
2023-03-22T12:10:03.790Z,5.88
2023-03-22T12:12:39.131Z,5.40
2023-03-22T12:15:21.551Z,5.53
2023-03-22T12:18:16.781Z,5.13
2023-03-22T12:20:53.818Z,5.10
2023-03-22T12:23:26.883Z,3.90
2023-03-22T12:26:12.267Z,3.33
2023-03-22T12:29:15.386Z,4.38
2023-03-22T12:32:10.047Z,3.20
2023-03-22T12:34:45.951Z,4.05
2023-03-22T12:37:19.751Z,3.70
2023-03-22T12:42:27.409Z,4.43
2023-03-22T12:45:10.899Z,3.92
2023-03-22T12:47:52.740Z,4.70
2023-03-22T12:50:56.568Z,4.80
2023-03-22T12:53:28.506Z,4.80
2023-03-22T12:55:59.065Z,3.67
2023-03-22T12:58:27.153Z,4.35
2023-03-22T13:01:07.918Z,4.38
2023-03-22T13:03:44.605Z,4.47
2023-03-22T13:06:31.352Z,3.90
2023-03-22T13:09:19.059Z,4.00
2023-03-22T13:12:19.565Z,4.18
2023-03-22T13:14:58.249Z,3.80
2023-03-22T13:17:27.831Z,3.85
2023-03-22T13:20:21.849Z,3.80
2023-03-22T13:22:49.081Z,3.88
2023-03-22T13:25:19.966Z,4.18
2023-03-22T13:28:27.003Z,3.35
2023-03-22T13:30:57.583Z,4.03
2023-03-22T13:33:32.195Z,4.15
2023-03-22T13:36:01.522Z,4.60
2023-03-22T13:38:35.372Z,3.90
2023-03-22T13:41:28.343Z,3.30
2023-03-22T13:43:57.689Z,3.40
2023-03-22T13:46:45.953Z,3.42
2023-03-22T13:49:23.842Z,3.55
2023-03-22T13:51:53.053Z,3.05
2023-03-22T13:54:30.360Z,3.42
2023-03-22T13:57:03.437Z,3.25
2023-03-22T14:00:12.198Z,2.70
2023-03-22T14:02:43.129Z,2.90
2023-03-22T14:05:16.881Z,2.53
2023-03-22T14:07:52.627Z,3.33
2023-03-22T14:10:29.301Z,3.05
2023-03-22T14:13:19.706Z,2.80
2023-03-22T14:16:10.162Z,2.50
2023-03-22T14:18:43.211Z,2.75
2023-03-22T14:21:17.875Z,2.58
